createdAt,value
2018-08-20T00:01:45.272Z,19.50
2018-08-20T00:04:24.137Z,19.40
2018-08-20T00:06:54.752Z,19.30
2018-08-20T00:09:31.115Z,19.40
2018-08-20T00:11:58.755Z,19.30
2018-08-20T00:14:42.970Z,19.40
2018-08-20T00:17:10.630Z,19.40
2018-08-20T00:19:40.797Z,19.20
2018-08-20T00:25:01.652Z,19.10
2018-08-20T00:27:30.288Z,19.10
2018-08-20T00:29:58.953Z,19.00
2018-08-20T00:32:26.611Z,19.00
2018-08-20T00:34:54.298Z,19.00
2018-08-20T00:37:21.921Z,19.00
2018-08-20T00:39:49.541Z,19.00
2018-08-20T00:42:17.137Z,19.00
2018-08-20T00:44:44.775Z,19.00
2018-08-20T00:47:12.401Z,19.00
2018-08-20T00:49:40.053Z,19.00
2018-08-20T00:52:07.737Z,18.90
2018-08-20T00:54:35.389Z,18.90
2018-08-20T00:57:03.026Z,18.90
2018-08-20T00:59:38.025Z,18.90
2018-08-20T01:02:05.597Z,18.80
2018-08-20T01:04:33.297Z,18.80
2018-08-20T01:07:01.059Z,18.80
2018-08-20T01:09:28.791Z,18.70
2018-08-20T01:11:56.392Z,18.60
2018-08-20T01:14:26.115Z,18.50
2018-08-20T01:16:53.760Z,18.50
2018-08-20T01:19:21.482Z,18.50
2018-08-20T01:21:49.173Z,18.40
2018-08-20T01:24:16.760Z,18.40
2018-08-20T01:26:44.349Z,18.40
2018-08-20T01:29:13.148Z,18.30
2018-08-20T01:31:40.748Z,18.40
2018-08-20T01:34:09.533Z,18.40
2018-08-20T01:36:37.188Z,18.40
2018-08-20T01:39:05.540Z,18.30
2018-08-20T01:41:33.220Z,18.30
2018-08-20T01:44:00.817Z,18.30
2018-08-20T01:46:28.473Z,18.30
2018-08-20T01:48:56.155Z,18.30
2018-08-20T01:51:23.758Z,18.30
2018-08-20T01:53:51.408Z,18.20
2018-08-20T01:56:19.021Z,18.20
2018-08-20T01:58:46.715Z,18.20
2018-08-20T02:01:14.310Z,18.10
2018-08-20T02:03:41.970Z,18.00
2018-08-20T02:06:09.689Z,18.00
2018-08-20T02:08:37.337Z,18.00
2018-08-20T02:11:05.041Z,18.00
2018-08-20T02:13:32.672Z,17.90
2018-08-20T02:16:00.267Z,17.80
2018-08-20T02:18:27.935Z,17.80
2018-08-20T02:20:55.745Z,17.80
2018-08-20T02:23:32.570Z,17.80
2018-08-20T02:26:00.248Z,17.80
2018-08-20T02:28:27.910Z,17.80
2018-08-20T02:30:55.577Z,17.70
2018-08-20T02:33:23.386Z,17.70
2018-08-20T02:35:51.025Z,17.60
2018-08-20T02:38:22.061Z,17.50
2018-08-20T02:40:49.784Z,17.60
2018-08-20T02:43:17.423Z,17.50
2018-08-20T02:45:45.175Z,17.60
2018-08-20T02:48:12.919Z,17.60
2018-08-20T02:50:40.590Z,17.60
2018-08-20T02:53:08.402Z,17.50
2018-08-20T02:55:36.121Z,17.50
2018-08-20T02:58:03.776Z,17.50
2018-08-20T03:00:31.416Z,17.40
2018-08-20T03:03:03.327Z,17.40
2018-08-20T03:05:33.581Z,17.30
2018-08-20T03:08:01.341Z,17.30
2018-08-20T03:10:29.010Z,17.30
2018-08-20T03:12:56.655Z,17.30
2018-08-20T03:15:24.567Z,17.20
2018-08-20T03:17:52.239Z,17.30
2018-08-20T03:20:19.942Z,17.20
2018-08-20T03:22:47.626Z,17.10
2018-08-20T03:25:15.321Z,17.20
2018-08-20T03:27:42.988Z,17.20
2018-08-20T03:30:10.640Z,17.10
2018-08-20T03:32:48.219Z,17.00
2018-08-20T03:35:15.870Z,17.00
2018-08-20T03:37:43.539Z,17.00
2018-08-20T03:40:12.372Z,17.00
2018-08-20T03:42:39.957Z,17.00
2018-08-20T03:45:08.345Z,17.00
2018-08-20T03:47:36.025Z,17.00
2018-08-20T03:50:04.663Z,17.00
2018-08-20T03:52:33.555Z,17.00
2018-08-20T03:55:32.282Z,17.00
2018-08-20T03:58:00.052Z,16.90
2018-08-20T04:00:27.878Z,16.80
2018-08-20T04:03:09.602Z,16.80
2018-08-20T04:05:39.049Z,16.80
2018-08-20T04:08:06.862Z,16.80
2018-08-20T04:10:34.635Z,16.80
2018-08-20T04:13:06.651Z,16.70
2018-08-20T04:15:35.785Z,16.80
2018-08-20T04:18:04.602Z,16.70
2018-08-20T04:20:32.613Z,16.70
2018-08-20T04:23:00.419Z,16.60
2018-08-20T04:25:30.686Z,16.70
2018-08-20T04:28:08.624Z,16.70
2018-08-20T04:30:47.564Z,16.60
2018-08-20T04:33:32.681Z,16.70
2018-08-20T04:36:00.478Z,16.70
2018-08-20T04:38:34.760Z,16.80
2018-08-20T04:41:04.871Z,16.80
2018-08-20T04:43:34.150Z,16.90
2018-08-20T04:46:02.060Z,16.90
2018-08-20T04:48:29.778Z,17.00
2018-08-20T04:51:16.054Z,17.00
2018-08-20T04:53:43.770Z,17.10
2018-08-20T04:56:12.419Z,17.00
2018-08-20T04:58:48.128Z,17.00
2018-08-20T05:27:44.593Z,17.70
2018-08-20T05:30:12.357Z,17.80
2018-08-20T05:32:40.099Z,17.90
2018-08-20T05:35:10.972Z,18.00
2018-08-20T05:37:38.830Z,18.10
2018-08-20T05:40:06.677Z,18.10
2018-08-20T05:42:39.125Z,18.20
2018-08-20T05:45:07.772Z,18.30
2018-08-20T05:47:35.651Z,18.40
2018-08-20T05:50:03.267Z,18.50
2018-08-20T05:52:30.948Z,18.60
2018-08-20T05:54:58.644Z,18.80
2018-08-20T05:57:26.393Z,18.80
2018-08-20T05:59:54.106Z,18.90
2018-08-20T06:02:21.892Z,19.00
2018-08-20T06:04:52.691Z,19.10
2018-08-20T06:07:20.328Z,19.20
2018-08-20T06:09:47.994Z,19.30
2018-08-20T06:12:16.676Z,19.40
2018-08-20T06:14:50.813Z,19.50
2018-08-20T06:17:18.527Z,19.40
2018-08-20T06:19:46.193Z,19.50
2018-08-20T06:22:13.872Z,19.60
2018-08-20T06:27:28.674Z,19.60
2018-08-20T06:29:56.361Z,19.70
2018-08-20T06:32:24.019Z,19.70
2018-08-20T06:34:52.736Z,19.90
2018-08-20T06:37:20.378Z,19.90
2018-08-20T06:39:52.103Z,20.00
2018-08-20T06:42:19.706Z,20.00
2018-08-20T06:44:47.317Z,20.10
2018-08-20T06:47:27.604Z,20.10
2018-08-20T06:49:55.238Z,20.20
2018-08-20T06:52:22.984Z,20.30
2018-08-20T06:55:07.570Z,20.30
2018-08-20T06:57:35.157Z,20.40
2018-08-20T07:00:02.821Z,20.50
2018-08-20T07:02:30.709Z,20.60
2018-08-20T07:04:58.431Z,20.70
2018-08-20T07:07:26.208Z,20.70
2018-08-20T07:09:53.830Z,20.90
2018-08-20T07:12:21.422Z,21.00
2018-08-20T07:14:48.986Z,21.10
2018-08-20T07:17:16.625Z,21.20
2018-08-20T07:19:44.197Z,21.20
2018-08-20T07:22:11.893Z,21.20
2018-08-20T07:24:39.529Z,21.30
2018-08-20T07:27:07.277Z,21.30
2018-08-20T07:29:39.491Z,21.40
2018-08-20T07:37:41.158Z,21.80
2018-08-20T07:42:54.277Z,21.90
2018-08-20T07:45:27.212Z,22.00
2018-08-20T07:47:54.890Z,22.00
2018-08-20T07:50:22.573Z,21.90
2018-08-20T07:52:50.255Z,22.00
2018-08-20T07:55:17.897Z,22.00
2018-08-20T07:57:45.589Z,22.10
2018-08-20T08:00:13.248Z,22.10
2018-08-20T08:02:40.866Z,22.20
2018-08-20T08:05:08.974Z,22.30
2018-08-20T08:07:36.598Z,22.40
2018-08-20T08:10:05.180Z,22.50
2018-08-20T08:12:32.741Z,22.60
2018-08-20T08:15:00.329Z,22.70
2018-08-20T08:17:27.990Z,22.70
2018-08-20T08:19:55.712Z,22.80
2018-08-20T08:22:23.316Z,22.80
2018-08-20T08:24:51.056Z,22.80
2018-08-20T08:27:18.773Z,22.80
2018-08-20T08:29:46.554Z,23.00
2018-08-20T08:32:14.340Z,23.10
2018-08-20T08:34:42.077Z,23.30
2018-08-20T08:37:09.854Z,23.30
2018-08-20T08:39:37.668Z,23.30
2018-08-20T08:42:05.313Z,23.30
2018-08-20T08:44:32.982Z,23.30
2018-08-20T08:47:12.793Z,23.50
2018-08-20T08:49:40.551Z,23.70
2018-08-20T08:52:08.241Z,23.70
2018-08-20T08:54:35.843Z,23.60
2018-08-20T08:57:03.470Z,23.70
2018-08-20T08:59:37.878Z,23.60
2018-08-20T09:02:05.600Z,23.60
2018-08-20T09:04:33.334Z,23.70
2018-08-20T09:09:47.322Z,23.70
2018-08-20T09:12:15.098Z,23.70
2018-08-20T09:14:56.329Z,23.60
2018-08-20T09:17:24.072Z,23.60
2018-08-20T09:19:56.524Z,23.60
2018-08-20T09:22:24.264Z,23.40
2018-08-20T09:24:59.625Z,23.40
2018-08-20T09:27:27.394Z,23.30
2018-08-20T09:29:59.820Z,23.30
2018-08-20T09:32:27.647Z,23.30
2018-08-20T09:34:55.202Z,23.30
2018-08-20T09:37:22.830Z,23.40
2018-08-20T09:39:50.483Z,23.30
2018-08-20T09:42:18.189Z,23.30
2018-08-20T09:44:45.884Z,23.30
2018-08-20T09:47:13.661Z,23.20
2018-08-20T09:49:41.363Z,23.20
2018-08-20T09:54:58.849Z,23.20
2018-08-20T09:57:26.684Z,23.10
2018-08-20T09:59:54.469Z,23.10
2018-08-20T10:02:22.141Z,23.00
2018-08-20T10:04:49.858Z,23.00
2018-08-20T10:07:22.702Z,23.00
2018-08-20T10:09:50.273Z,23.00
2018-08-20T10:12:21.261Z,23.00
2018-08-20T10:14:48.880Z,23.00
2018-08-20T10:17:16.589Z,23.00
2018-08-20T10:19:44.545Z,22.90
2018-08-20T10:22:12.195Z,22.90
2018-08-20T10:24:41.934Z,22.90
2018-08-20T10:27:10.563Z,23.00
2018-08-20T10:29:39.572Z,23.10
2018-08-20T10:32:24.284Z,23.30
2018-08-20T10:35:06.159Z,23.30
2018-08-20T10:37:33.884Z,23.50
2018-08-20T10:40:01.920Z,23.60
2018-08-20T10:42:29.677Z,23.70
2018-08-20T10:45:02.731Z,23.80
2018-08-20T10:47:30.534Z,23.90
2018-08-20T10:49:58.208Z,23.90
2018-08-20T10:52:26.155Z,23.90
2018-08-20T10:54:57.416Z,23.90
2018-08-20T10:57:25.023Z,23.80
2018-08-20T10:59:59.507Z,23.70
2018-08-20T11:02:27.246Z,23.70
2018-08-20T11:04:55.275Z,23.60
2018-08-20T11:07:23.318Z,23.60
2018-08-20T11:09:51.095Z,23.60
2018-08-20T11:15:08.597Z,23.80
2018-08-20T11:17:36.763Z,23.80
2018-08-20T11:22:50.218Z,24.00
2018-08-20T11:25:23.184Z,24.10
2018-08-20T11:27:50.841Z,24.10
2018-08-20T11:30:18.578Z,24.10
2018-08-20T11:32:46.231Z,24.20
2018-08-20T11:35:13.818Z,24.40
2018-08-20T11:37:41.539Z,24.40
2018-08-20T11:40:11.434Z,24.50
2018-08-20T11:42:39.069Z,24.50
2018-08-20T11:45:11.888Z,24.70
2018-08-20T11:47:40.106Z,24.80
2018-08-20T11:50:10.070Z,24.90
2018-08-20T11:52:38.687Z,24.90
2018-08-20T11:55:06.378Z,25.00
2018-08-20T11:57:34.130Z,25.10
2018-08-20T12:00:01.750Z,25.10
2018-08-20T12:02:29.405Z,25.20
2018-08-20T12:04:57.046Z,25.30
2018-08-20T12:07:25.045Z,25.30
2018-08-20T12:09:52.736Z,25.40
2018-08-20T12:12:20.442Z,25.40
2018-08-20T12:14:48.186Z,25.30
2018-08-20T12:17:16.769Z,25.30
2018-08-20T12:19:44.362Z,25.30
2018-08-20T12:22:12.147Z,25.30
2018-08-20T12:24:43.466Z,25.30
2018-08-20T12:27:11.073Z,25.20
2018-08-20T12:29:38.804Z,25.20
2018-08-20T12:32:06.414Z,25.40
2018-08-20T12:34:34.016Z,25.60
2018-08-20T12:37:01.687Z,25.60
2018-08-20T12:39:29.327Z,25.70
2018-08-20T12:41:57.020Z,25.70
2018-08-20T12:44:24.698Z,25.70
2018-08-20T12:46:52.257Z,25.70
2018-08-20T12:49:19.941Z,25.70
2018-08-20T12:51:47.533Z,25.70
2018-08-20T12:54:15.157Z,25.70
2018-08-20T12:56:43.336Z,25.70
2018-08-20T12:59:10.962Z,25.60
2018-08-20T13:01:38.605Z,25.60
2018-08-20T13:04:06.320Z,25.50
2018-08-20T13:06:34.057Z,25.50
2018-08-20T13:09:01.732Z,25.50
2018-08-20T13:11:29.377Z,25.50
2018-08-20T13:13:57.038Z,25.50
2018-08-20T13:16:24.717Z,25.40
2018-08-20T13:18:52.273Z,25.40
2018-08-20T13:21:19.896Z,25.40
2018-08-20T13:23:47.547Z,25.40
2018-08-20T13:26:15.162Z,25.40
2018-08-20T13:28:46.820Z,25.50
2018-08-20T13:31:14.419Z,25.40
2018-08-20T13:33:43.737Z,25.50
2018-08-20T13:36:11.383Z,25.50
2018-08-20T13:38:39.038Z,25.60
2018-08-20T13:41:57.861Z,25.50
2018-08-20T13:44:25.510Z,25.40
2018-08-20T13:46:53.421Z,25.40
2018-08-20T13:49:21.261Z,25.40
2018-08-20T13:51:48.976Z,25.40
2018-08-20T13:54:22.628Z,25.40
2018-08-20T13:56:50.367Z,25.50
2018-08-20T13:59:18.542Z,25.50
2018-08-20T14:01:49.622Z,25.60
2018-08-20T14:04:17.289Z,25.60
2018-08-20T14:06:45.314Z,25.60
2018-08-20T14:09:12.986Z,25.60
2018-08-20T14:11:40.714Z,25.50
2018-08-20T14:14:08.690Z,25.40
2018-08-20T14:16:36.634Z,25.40
2018-08-20T14:19:04.314Z,25.40
2018-08-20T14:21:33.088Z,25.40
2018-08-20T14:24:00.752Z,25.30
2018-08-20T14:26:28.406Z,25.40
2018-08-20T14:28:56.093Z,25.30
2018-08-20T14:31:23.779Z,25.40
2018-08-20T14:33:51.478Z,25.50
2018-08-20T14:36:19.258Z,25.60
2018-08-20T14:38:52.681Z,25.60
2018-08-20T14:41:20.332Z,25.80
2018-08-20T14:46:40.035Z,25.80
2018-08-20T14:51:54.499Z,25.80
2018-08-20T14:54:22.080Z,25.80
2018-08-20T14:56:49.851Z,25.80
2018-08-20T14:59:17.452Z,25.80
2018-08-20T15:01:45.486Z,25.80
2018-08-20T15:04:13.281Z,25.80
2018-08-20T15:06:51.554Z,25.80
2018-08-20T15:12:15.681Z,25.90
2018-08-20T15:14:44.302Z,25.90
2018-08-20T15:17:11.870Z,26.00
2018-08-20T15:19:39.779Z,26.00
2018-08-20T15:22:07.533Z,26.10
2018-08-20T15:24:35.215Z,26.10
2018-08-20T15:27:02.849Z,26.10
2018-08-20T15:29:32.584Z,26.10
2018-08-20T15:32:07.953Z,26.00
2018-08-20T15:34:36.603Z,26.00
2018-08-20T15:37:04.285Z,26.00
2018-08-20T15:39:34.054Z,25.90
2018-08-20T15:42:01.709Z,25.90
2018-08-20T15:44:36.137Z,25.90
2018-08-20T15:47:03.833Z,25.90
2018-08-20T15:49:31.413Z,25.90
2018-08-20T15:51:59.065Z,25.80
2018-08-20T15:54:32.455Z,25.80
2018-08-20T15:57:00.095Z,25.80
2018-08-20T15:59:28.804Z,25.80
2018-08-20T16:01:56.499Z,25.80
2018-08-20T16:04:32.325Z,25.80
2018-08-20T16:06:59.946Z,25.80
2018-08-20T16:09:27.556Z,25.70
2018-08-20T16:11:55.290Z,25.70
2018-08-20T16:14:22.928Z,25.70
2018-08-20T16:16:50.574Z,25.60
2018-08-20T16:19:18.269Z,25.60
2018-08-20T16:21:45.930Z,25.50
2018-08-20T16:24:13.602Z,25.50
2018-08-20T16:26:41.296Z,25.50
2018-08-20T16:29:10.928Z,25.40
2018-08-20T16:31:38.565Z,25.30
2018-08-20T16:34:06.317Z,25.30
2018-08-20T16:36:33.979Z,25.30
2018-08-20T16:39:01.816Z,25.30
2018-08-20T16:41:29.530Z,25.20
2018-08-20T16:43:57.413Z,25.30
2018-08-20T16:49:17.740Z,25.20
2018-08-20T16:51:45.319Z,25.20
2018-08-20T16:54:13.119Z,25.20
2018-08-20T16:56:40.805Z,25.10
2018-08-20T16:59:08.485Z,25.10
2018-08-20T17:01:36.432Z,25.00
2018-08-20T17:04:04.365Z,25.00
2018-08-20T17:06:41.705Z,24.90
2018-08-20T17:09:15.037Z,24.90
2018-08-20T17:11:42.875Z,24.80
2018-08-20T17:14:10.537Z,24.80
2018-08-20T17:16:38.235Z,24.70
2018-08-20T17:19:06.154Z,24.70
2018-08-20T17:21:33.850Z,24.60
2018-08-20T17:24:01.564Z,24.60
2018-08-20T17:26:29.467Z,24.50
2018-08-20T17:29:01.379Z,24.50
2018-08-20T17:31:29.037Z,24.50
2018-08-20T17:33:56.663Z,24.40
2018-08-20T17:36:24.314Z,24.40
2018-08-20T17:38:51.977Z,24.40
2018-08-20T17:41:20.780Z,24.40
2018-08-20T17:43:56.126Z,24.40
2018-08-20T17:46:23.841Z,24.30
2018-08-20T17:48:51.516Z,24.30
2018-08-20T17:51:19.254Z,24.30
2018-08-20T17:53:49.027Z,24.30
2018-08-20T17:56:16.804Z,24.20
2018-08-20T17:58:44.455Z,24.20
2018-08-20T18:01:14.558Z,24.10
2018-08-20T18:03:42.591Z,24.10
2018-08-20T18:06:10.325Z,24.10
2018-08-20T18:08:38.205Z,24.10
2018-08-20T18:11:06.781Z,24.00
2018-08-20T18:13:42.159Z,24.00
2018-08-20T18:16:11.103Z,23.90
2018-08-20T18:18:39.764Z,23.90
2018-08-20T18:21:07.764Z,23.80
2018-08-20T18:23:36.183Z,23.80
2018-08-20T18:26:03.925Z,23.70
2018-08-20T18:28:41.618Z,23.70
2018-08-20T18:31:14.265Z,23.70
2018-08-20T18:33:42.470Z,23.70
2018-08-20T18:36:18.861Z,23.60
2018-08-20T18:38:51.135Z,23.60
2018-08-20T18:41:19.569Z,23.60
2018-08-20T18:43:47.264Z,23.50
2018-08-20T18:46:15.144Z,23.50
2018-08-20T18:48:43.071Z,23.50
2018-08-20T18:51:28.413Z,23.40
2018-08-20T18:53:56.200Z,23.30
2018-08-20T18:56:23.969Z,23.30
2018-08-20T18:58:51.797Z,23.30
2018-08-20T19:01:19.651Z,23.30
2018-08-20T19:03:48.599Z,23.30
2018-08-20T19:06:18.410Z,23.20
2018-08-20T19:08:46.053Z,23.20
2018-08-20T19:11:13.994Z,23.20
2018-08-20T19:13:42.449Z,23.10
2018-08-20T19:16:30.988Z,23.10
2018-08-20T19:18:58.718Z,23.10
2018-08-20T19:21:35.685Z,23.10
2018-08-20T19:24:03.344Z,23.10
2018-08-20T19:26:31.083Z,23.10
2018-08-20T19:29:01.220Z,23.10
2018-08-20T19:31:29.142Z,23.00
2018-08-20T19:33:56.779Z,23.10
2018-08-20T19:36:24.473Z,23.00
2018-08-20T19:38:52.135Z,23.00
2018-08-20T19:41:19.999Z,23.00
2018-08-20T19:43:49.596Z,23.00
2018-08-20T19:46:18.723Z,23.00
2018-08-20T19:48:46.576Z,22.90
2018-08-20T19:51:14.191Z,22.90
2018-08-20T19:53:41.790Z,22.90
2018-08-20T19:56:10.533Z,23.00
2018-08-20T19:58:38.146Z,22.90
2018-08-20T20:01:12.444Z,22.90
2018-08-20T20:03:43.020Z,22.90
2018-08-20T20:06:17.022Z,22.90
2018-08-20T20:08:44.629Z,22.90
2018-08-20T20:11:18.327Z,22.90
2018-08-20T20:13:47.229Z,22.90
2018-08-20T20:16:26.357Z,22.90
2018-08-20T20:18:54.302Z,22.80
2018-08-20T20:21:22.402Z,22.80
2018-08-20T20:23:50.179Z,22.80
2018-08-20T20:26:18.116Z,22.80
2018-08-20T20:31:32.982Z,22.80
2018-08-20T20:34:00.694Z,22.80
2018-08-20T20:36:29.569Z,22.80
2018-08-20T20:38:57.240Z,22.80
2018-08-20T20:41:24.940Z,22.80
2018-08-20T20:43:55.768Z,22.80
2018-08-20T20:46:23.413Z,22.80
2018-08-20T20:48:51.018Z,22.80
2018-08-20T20:51:18.914Z,22.80
2018-08-20T20:53:46.520Z,22.70
2018-08-20T20:56:20.164Z,22.70
2018-08-20T20:58:47.771Z,22.70
2018-08-20T21:01:15.556Z,22.70
2018-08-20T21:03:43.233Z,22.70
2018-08-20T21:06:10.785Z,22.60
2018-08-20T21:08:43.865Z,22.60
2018-08-20T21:11:12.052Z,22.60
2018-08-20T21:13:46.156Z,22.50
2018-08-20T21:16:14.954Z,22.50
2018-08-20T21:18:44.941Z,22.50
2018-08-20T21:21:12.957Z,22.50
2018-08-20T21:23:41.341Z,22.40
2018-08-20T21:28:57.219Z,22.40
2018-08-20T21:31:26.028Z,22.30
2018-08-20T21:33:54.234Z,22.20
2018-08-20T21:36:21.833Z,22.10
2018-08-20T21:38:49.452Z,22.10
2018-08-20T21:41:17.825Z,22.00
2018-08-20T21:43:46.213Z,21.90
2018-08-20T21:46:14.140Z,21.90
2018-08-20T21:48:42.025Z,21.80
2018-08-20T21:51:14.631Z,21.80
2018-08-20T21:53:42.379Z,21.80
2018-08-20T21:56:11.156Z,21.70
2018-08-20T21:58:40.351Z,21.70
2018-08-20T22:01:09.082Z,21.70
2018-08-20T22:03:36.680Z,21.70
2018-08-20T22:06:04.307Z,21.70
2018-08-20T22:08:31.971Z,21.60
2018-08-20T22:10:59.581Z,21.70
2018-08-20T22:13:27.244Z,21.70
2018-08-20T22:16:04.710Z,21.60
2018-08-20T22:18:39.307Z,21.70
2018-08-20T22:21:08.689Z,21.70
2018-08-20T22:23:39.236Z,21.60
2018-08-20T22:26:04.165Z,21.60
2018-08-20T22:28:31.821Z,21.50
2018-08-20T22:30:59.455Z,21.50
2018-08-20T22:33:27.134Z,21.40
2018-08-20T22:35:54.867Z,21.40
2018-08-20T22:38:22.386Z,21.40
2018-08-20T22:40:50.039Z,21.30
2018-08-20T22:43:17.690Z,21.30
2018-08-20T22:45:45.319Z,21.30
2018-08-20T22:48:12.928Z,21.30
2018-08-20T22:53:36.914Z,21.30
2018-08-20T22:56:22.049Z,21.30
2018-08-20T22:58:49.665Z,21.30
2018-08-20T23:01:17.299Z,21.30
2018-08-20T23:03:44.961Z,21.20
2018-08-20T23:06:12.649Z,21.10
2018-08-20T23:08:40.314Z,21.00
2018-08-20T23:11:07.894Z,21.10
2018-08-20T23:13:35.864Z,21.00
2018-08-20T23:16:03.454Z,20.90
2018-08-20T23:18:31.028Z,20.90
2018-08-20T23:20:58.638Z,20.90
2018-08-20T23:23:35.738Z,20.80
2018-08-20T23:26:09.333Z,20.80
2018-08-20T23:28:40.905Z,20.70
2018-08-20T23:31:08.541Z,20.80
2018-08-20T23:33:37.605Z,20.70
2018-08-20T23:36:05.222Z,20.70
2018-08-20T23:38:32.882Z,20.60
2018-08-20T23:41:00.473Z,20.50
2018-08-20T23:43:28.482Z,20.50
2018-08-20T23:45:56.173Z,20.50
2018-08-20T23:48:23.853Z,20.50
2018-08-20T23:50:57.021Z,20.50
2018-08-20T23:53:24.808Z,20.50
2018-08-20T23:55:52.449Z,20.50
2018-08-20T23:58:20.672Z,20.50
